• Join FlightAware (Why Join?)
  • Login
  • US Flag 
10:55AM EST


 

Airport Tracker/Info


-or-


 

Live Flight TrackerFlight Track Log ✈ SWA3675 ✈ 10-May-2013 ✈ KBWI - KORF

Flight Track Log - Related Links

Times and Time Zones

All times are in EDT time to prevent confusion due to time zone crossing. See the SWA3675 flight status page for this flight to view local times or setup timezone preferences in your user account.

Time Position Orientation Groundspeed Altitude Reporting Facility
EDT Latitude Longitude Course Direction KTS MPH feet Rate Location/Type
08:08PM 39.1500 -76.6500 184° South 174 200 2,000  Level Potomac TRACON
08:09PM 39.1167 -76.6000 131° Southeast 206 237 4,600 2,940 Climbing Potomac TRACON
08:10PM 39.0500 -76.5333 142° Southeast 270 311 7,900 3,540 Climbing Potomac TRACON
08:11PM 38.9833 -76.5000 159° South 288 331 11,700 1,920 Climbing Potomac TRACON
08:14PM 38.7942 -76.6956 184° South  Level FlightAware Approximate
08:14PM 38.8183 -76.4975 179° South 290 334 14,000  Level Washington Center
08:14PM 38.7511 -76.5500 211° Southwest 272 313 14,100  Climbing Washington Center
08:15PM 38.6553 -76.5381 174° South 308 354 14,100 -60 Level Washington Center
08:16PM 38.5575 -76.5183 171° South 337 388 14,000 -60 Descending Washington Center
08:17PM 38.4575 -76.4983 171° South 358 412 14,000  Level Washington Center
08:18PM 38.3575 -76.4786 171° South 364 419 14,000  Level Washington Center
08:19PM 38.2703 -76.4539 167° South 364 419 14,100  Climbing Washington Center
08:20PM 38.1703 -76.4342 171° South 364 419 14,100 -60 Level Washington Center
08:21PM 38.0681 -76.4172 173° South 369 425 14,000 -600 Descending Washington Center
08:22PM 37.9683 -76.3950 170° South 369 425 13,000 -1,080 Descending Washington Center
08:23PM 37.8767 -76.3836 174° South 358 412 12,000 -1,140 Descending Washington Center
08:24PM 37.8328 -76.3753 171° South 359 413 11,600 -960 Descending Washington Center
08:24PM 37.7725 -76.3589 168° South 369 425 11,000 -1,200 Descending Washington Center
08:25PM 37.7328 -76.3533 174° South 356 410 10,400 -1,020 Descending Washington Center
08:25PM 37.6786 -76.3369 167° South 364 419 10,000 -420 Descending Washington Center
08:26PM 37.6411 -76.3261 167° South 341 392 10,000 -120 Level Washington Center
08:26PM 37.5869 -76.3100 167° South 352 405 9,900 -360 Descending Washington Center
08:27PM 37.5039 -76.2831 166° South 329 379 9,400 -960 Descending Washington Center
08:28PM 37.4808 -76.2828 179° South 284 327 8,800 -1,380 Descending Washington Center
08:28PM 37.4289 -76.2614 162° South 301 346 8,000 -1,380 Descending Washington Center
08:29PM 37.4039 -76.2586 175° South 284 327 7,400 -1,380 Descending Washington Center
08:29PM 37.3539 -76.2397 163° South 288 331 6,600 -1,320 Descending Washington Center
08:30PM 37.3289 -76.2369 175° South 271 312 6,100 -1,440 Descending Washington Center
08:30PM 37.2808 -76.2208 165° South 275 316 5,200 -1,440 Descending Washington Center
08:31PM 37.2414 -76.2103 168° South 263 303 4,400 -1,680 Descending Washington Center
08:31PM 37.2039 -76.1994 167° South 275 316 3,600 -1,380 Descending Washington Center
08:32PM 37.1850 -76.1967 173° South 256 295 3,300 -600 Descending Washington Center
08:32PM 37.1372 -76.1806 165° South 265 305 3,000 -300 Descending Washington Center
08:33PM 37.1206 -76.1753 166° South 246 283 3,000 -720 Level Washington Center
08:34PM 37.0497 -76.1567 168° South 238 274 2,100 -660 Descending Washington Center
08:35PM 36.9975 -76.1406 166° South 177 204 1,700 -420 Descending Washington Center
08:36PM 36.9600 -76.1403 180° South 116 133 1,300 -420 Descending Washington Center